Time;durP1;ratioP1;P1;durP2;ratioP2;P2;SDS_P1;SDS_P2;PMS_P1;PMS_P2;Temp;Humidity;BMP_temperature;BMP_pressure;BME280_temperature;BME280_humidity;BME280_pressure;Samples;Min_cycle;Max_cycle;Signal;HPM_P1;HPM_P2
2022/04/08 00:00:15;;;;;;;;;;;;;;;8.39;46.45;95575.63;12838749;23;19912;-81
2022/04/08 00:05:38;;;;;;;;;;;;;;;8.36;46.84;95576.91;12818809;23;19905;-76
2022/04/08 00:11:00;;;;;;;;;;;;;;;8.31;47.01;95585.06;12838888;23;19947;-79
2022/04/08 00:16:21;;;;;;;;;;;;;;;8.29;47.14;95587.72;12859157;23;19930;-80
2022/04/08 00:21:43;;;;;;;;;;;;;;;8.29;46.94;95601.63;12817953;23;19924;-79
2022/04/08 00:27:04;;;;;;;;;;;;;;;8.23;46.92;95622.91;12838544;23;19939;-80
2022/04/08 00:32:29;;;;;;;;;;;;;;;8.20;46.52;95597.09;12793153;23;19935;-77
2022/04/08 00:37:50;;;;;;;;;;;;;;;8.14;45.90;95588.50;12838978;23;19908;-80
2022/04/08 00:43:16;;;;;;;;;;;;;;;8.09;46.53;95595.22;12838196;23;19904;-79
2022/04/08 00:48:38;;;;;;;;;;;;;;;8.04;45.49;95599.91;12838598;23;19912;-78
2022/04/08 00:53:59;;;;;;;;;;;;;;;7.98;45.53;95601.69;12837940;23;19924;-81
2022/04/08 00:59:19;;;;;;;;;;;;;;;7.92;44.84;95634.78;12838252;23;19915;-79
2022/04/08 01:04:40;;;;;;;;;;;;;;;7.89;45.14;95647.13;12852585;23;20027;-80
2022/04/08 01:10:01;;;;;;;;;;;;;;;7.87;44.86;95647.03;12816727;23;19927;-77
2022/04/08 01:15:22;;;;;;;;;;;;;;;7.79;44.82;95649.47;12837683;23;19911;-81
2022/04/08 01:20:43;;;;;;;;;;;;;;;7.76;44.71;95640.34;12858502;23;19927;-80
2022/04/08 01:26:05;;;;;;;;;;;;;;;7.75;44.52;95645.16;12837509;23;19940;-79
2022/04/08 01:31:29;;;;;;;;;;;;;;;7.72;44.38;95660.31;12837625;23;19904;-81
2022/04/08 01:36:50;;;;;;;;;;;;;;;7.68;44.33;95657.34;12838189;23;19916;-81
2022/04/08 01:42:11;;;;;;;;;;;;;;;7.65;44.40;95658.59;12858319;23;19904;-80
2022/04/08 01:47:31;;;;;;;;;;;;;;;7.64;44.16;95679.38;12857834;23;19904;-79
2022/04/08 01:52:52;;;;;;;;;;;;;;;7.65;43.82;95685.66;12836725;23;19924;-81
2022/04/08 01:58:13;;;;;;;;;;;;;;;7.60;43.94;95678.47;12839797;23;19911;-79
2022/04/08 02:03:34;;;;;;;;;;;;;;;7.59;43.98;95688.84;12833826;23;19919;-78
2022/04/08 02:08:57;;;;;;;;;;;;;;;7.55;44.03;95705.34;12855606;23;19911;-81
2022/04/08 02:14:17;;;;;;;;;;;;;;;7.53;43.96;95702.47;12814099;23;20017;-79
2022/04/08 02:19:39;;;;;;;;;;;;;;;7.55;43.94;95712.97;12836311;23;19905;-77
2022/04/08 02:25:01;;;;;;;;;;;;;;;7.49;43.83;95713.38;12838596;23;19914;-77
2022/04/08 02:30:22;;;;;;;;;;;;;;;7.47;43.91;95699.41;12838418;23;19944;-77
2022/04/08 02:35:43;;;;;;;;;;;;;;;7.43;44.05;95738.81;12824537;23;19904;-77
2022/04/08 02:41:05;;;;;;;;;;;;;;;7.42;44.00;95748.47;12815834;23;19904;-78
2022/04/08 02:46:27;;;;;;;;;;;;;;;7.40;44.29;95772.63;12838152;23;19927;-78
2022/04/08 02:51:51;;;;;;;;;;;;;;;7.38;44.33;95769.75;12837565;23;20349;-76
2022/04/08 02:57:13;;;;;;;;;;;;;;;7.40;44.48;95780.97;12817801;23;19913;-78
2022/04/08 03:02:37;;;;;;;;;;;;;;;7.34;44.53;95780.69;12818913;23;19912;-78
2022/04/08 03:07:59;;;;;;;;;;;;;;;7.35;44.45;95782.13;12839472;23;19935;-78
2022/04/08 03:13:21;;;;;;;;;;;;;;;7.31;44.47;95779.84;12796615;23;19949;-80
2022/04/08 03:18:42;;;;;;;;;;;;;;;7.30;44.38;95805.44;12816654;23;19963;-77
2022/04/08 03:24:04;;;;;;;;;;;;;;;7.27;44.49;95807.41;12839994;23;19920;-78
2022/04/08 03:29:26;;;;;;;;;;;;;;;7.24;44.66;95805.16;12774106;23;19922;-80
2022/04/08 03:34:57;;;;;;;;;;;;;;;7.23;45.13;95826.63;12816750;23;19904;-78
2022/04/08 03:40:18;;;;;;;;;;;;;;;7.19;45.23;95829.22;12818190;23;19904;-78
2022/04/08 03:45:40;;;;;;;;;;;;;;;7.14;45.35;95839.41;12796311;23;19931;-76
2022/04/08 03:51:00;;;;;;;;;;;;;;;7.14;45.15;95835.88;12859577;23;19925;-79
2022/04/08 03:56:21;;;;;;;;;;;;;;;7.11;45.04;95835.06;12879661;23;19924;-79
2022/04/08 04:01:42;;;;;;;;;;;;;;;7.13;45.16;95851.81;12817927;23;19920;-81
2022/04/08 04:07:03;;;;;;;;;;;;;;;7.10;45.09;95847.50;12773005;23;19983;-78
2022/04/08 04:12:26;;;;;;;;;;;;;;;7.08;45.16;95844.63;12831002;23;19904;-82
2022/04/08 04:17:47;;;;;;;;;;;;;;;7.08;45.12;95875.16;12825036;23;19921;-80
2022/04/08 04:23:08;;;;;;;;;;;;;;;7.11;45.37;95881.53;12821675;23;19963;-81
2022/04/08 04:28:31;;;;;;;;;;;;;;;7.13;45.27;95889.94;12822560;23;19921;-78
2022/04/08 04:33:52;;;;;;;;;;;;;;;7.16;45.32;95895.00;12799562;23;19920;-79
2022/04/08 04:39:12;;;;;;;;;;;;;;;7.24;45.08;95893.94;12758588;23;19928;-79
2022/04/08 04:44:34;;;;;;;;;;;;;;;7.29;45.26;95904.66;12779738;23;19942;-78
2022/04/08 04:49:55;;;;;;;;;;;;;;;7.35;45.19;95918.13;12780775;23;20232;-80
2022/04/08 04:55:16;;;;;;;;;;;;;;;7.45;45.03;95915.84;12780284;23;19924;-79
2022/04/08 05:00:37;;;;;;;;;;;;;;;7.62;44.71;95923.63;12758817;23;19925;-79
2022/04/08 05:05:58;;;;;;;;;;;;;;;7.75;44.84;95936.06;12770255;23;19940;-79
2022/04/08 05:11:19;;;;;;;;;;;;;;;7.93;44.27;95936.25;12800972;23;20003;-79
2022/04/08 05:16:40;;;;;;;;;;;;;;;8.08;44.52;95954.31;12759669;23;19943;-79
2022/04/08 05:22:01;;;;;;;;;;;;;;;8.32;43.87;95958.97;12759856;23;19927;-80
2022/04/08 05:27:21;;;;;;;;;;;;;;;8.80;43.92;95979.31;12780568;23;20231;-80
2022/04/08 05:32:42;;;;;;;;;;;;;;;9.38;42.39;95994.41;12800443;23;19978;-79
2022/04/08 05:38:03;;;;;;;;;;;;;;;9.83;42.43;96013.03;12764224;23;20411;-80
2022/04/08 05:43:23;;;;;;;;;;;;;;;10.52;41.81;96021.50;12783344;23;19920;-80
2022/04/08 05:48:44;;;;;;;;;;;;;;;13.77;37.80;96017.09;12825650;23;19924;-79
2022/04/08 05:54:05;;;;;;;;;;;;;;;16.40;32.51;96031.44;12804116;23;20397;-80
2022/04/08 05:59:25;;;;;;;;;;;;;;;18.25;29.78;96042.59;12785504;23;19920;-80
2022/04/08 06:04:46;;;;;;;;;;;;;;;21.13;27.15;96066.06;12781763;23;19920;-85
2022/04/08 06:10:07;;;;;;;;;;;;;;;24.96;24.25;96088.81;12760169;23;19924;-84
2022/04/08 06:15:28;;;;;;;;;;;;;;;25.83;20.49;96094.56;12781786;23;20047;-83
2022/04/08 06:20:49;;;;;;;;;;;;;;;28.61;16.72;96098.00;12780762;23;19921;-83
2022/04/08 06:26:10;;;;;;;;;;;;;;;28.69;15.88;96104.22;12740090;23;20319;-82
2022/04/08 06:31:34;;;;;;;;;;;;;;;25.48;17.62;96112.28;12781318;23;19921;-87
2022/04/08 06:36:54;;;;;;;;;;;;;;;25.07;18.21;96124.34;12790744;23;19928;-87
2022/04/08 06:42:15;;;;;;;;;;;;;;;22.39;18.91;96121.16;12801065;23;20324;-89
2022/04/08 06:47:51;;;;;;;;;;;;;;;17.86;23.26;96118.34;12759729;23;19927;-89
2022/04/08 06:53:12;;;;;;;;;;;;;;;15.99;25.95;96120.75;12761125;23;19920;-87
2022/04/08 06:58:38;;;;;;;;;;;;;;;15.43;27.15;96115.31;12739316;23;19927;-88
2022/04/08 07:04:00;;;;;;;;;;;;;;;16.06;27.00;96119.50;12758239;23;19920;-84
2022/04/08 07:09:23;;;;;;;;;;;;;;;16.85;26.57;96140.03;12761016;23;19920;-90
2022/04/08 07:14:44;;;;;;;;;;;;;;;16.99;26.17;96142.38;12780168;23;19920;-89
2022/04/08 07:20:05;;;;;;;;;;;;;;;15.90;26.96;96158.56;12759479;23;19927;-85
2022/04/08 07:43:57;;;;;;;;;;;;;;;15.97;28.69;96174.91;12787738;23;19920;-85
2022/04/08 07:49:18;;;;;;;;;;;;;;;15.68;28.97;96182.00;12807204;23;20328;-79
2022/04/08 08:37:11;;;;;;;;;;;;;;;23.25;22.54;96218.13;12739244;23;19925;-87
2022/04/08 08:42:32;;;;;;;;;;;;;;;23.23;21.54;96203.94;12737092;23;20240;-81
2022/04/08 08:47:53;;;;;;;;;;;;;;;20.91;22.25;96195.78;12736699;23;19924;-84
2022/04/08 08:53:17;;;;;;;;;;;;;;;18.20;24.71;96199.25;12716545;23;20236;-84
2022/04/08 08:58:38;;;;;;;;;;;;;;;17.55;25.49;96209.56;12737388;23;20284;-84
2022/04/08 09:04:00;;;;;;;;;;;;;;;17.07;26.02;96210.88;12755565;23;19927;-85
2022/04/08 09:09:28;;;;;;;;;;;;;;;17.77;26.08;96209.22;12696661;23;19932;-85
2022/04/08 09:14:49;;;;;;;;;;;;;;;17.05;26.00;96212.94;12717578;23;19920;-81
2022/04/08 09:20:11;;;;;;;;;;;;;;;17.55;26.32;96192.63;12736839;23;19920;-86
2022/04/08 09:25:33;;;;;;;;;;;;;;;19.08;24.34;96190.38;12697330;23;19924;-87
2022/04/08 09:30:55;;;;;;;;;;;;;;;18.20;24.15;96199.25;12742115;23;19924;-88
2022/04/08 09:36:26;;;;;;;;;;;;;;;19.31;23.63;96196.97;12762338;23;19924;-87
2022/04/08 09:41:48;;;;;;;;;;;;;;;18.54;24.33;96202.50;12744407;23;19927;-88
2022/04/08 09:47:10;;;;;;;;;;;;;;;19.61;23.40;96201.47;12786155;23;19970;-80
2022/04/08 09:52:31;;;;;;;;;;;;;;;22.77;19.92;96192.06;12784404;23;20239;-80
2022/04/08 09:57:53;;;;;;;;;;;;;;;20.23;21.52;96201.16;12784372;23;19932;-80
2022/04/08 10:03:14;;;;;;;;;;;;;;;19.34;22.76;96181.44;12805717;23;19920;-79
2022/04/08 10:08:34;;;;;;;;;;;;;;;24.84;19.56;96172.47;12805649;23;19921;-84
2022/04/08 10:13:58;;;;;;;;;;;;;;;23.21;19.42;96181.19;12784235;23;19920;-85
2022/04/08 10:19:20;;;;;;;;;;;;;;;21.72;20.06;96176.03;12784877;23;19983;-85
2022/04/08 10:24:40;;;;;;;;;;;;;;;21.08;20.75;96168.88;12763699;23;19927;-85
2022/04/08 10:30:10;;;;;;;;;;;;;;;19.93;21.47;96147.91;12781827;23;19924;-84
2022/04/08 10:35:30;;;;;;;;;;;;;;;18.34;22.91;96174.00;12743514;23;19926;-87
2022/04/08 10:40:52;;;;;;;;;;;;;;;17.86;24.08;96168.44;12758235;23;19920;-86
2022/04/08 10:46:13;;;;;;;;;;;;;;;17.44;24.33;96186.81;12800045;23;19947;-84
2022/04/08 10:51:42;;;;;;;;;;;;;;;16.49;25.38;96180.19;12757059;23;19946;-85
2022/04/08 10:57:03;;;;;;;;;;;;;;;15.81;26.38;96199.16;12777994;23;19920;-82
2022/04/08 11:02:24;;;;;;;;;;;;;;;15.58;26.73;96167.69;12801932;23;19920;-82
2022/04/08 11:07:54;;;;;;;;;;;;;;;16.14;26.94;96167.53;12720494;23;19955;-86
2022/04/08 11:13:15;;;;;;;;;;;;;;;16.46;26.16;96161.09;12716677;23;19921;-83
2022/04/08 11:18:36;;;;;;;;;;;;;;;16.39;26.34;96156.75;12695461;23;19924;-81
2022/04/08 11:23:58;;;;;;;;;;;;;;;15.86;26.54;96155.66;12717354;23;19920;-78
2022/04/08 11:29:19;;;;;;;;;;;;;;;15.69;27.27;96146.16;12736076;23;19925;-78
2022/04/08 11:34:41;;;;;;;;;;;;;;;15.89;27.51;96132.53;12713524;23;20004;-79
2022/04/08 11:40:04;;;;;;;;;;;;;;;16.65;27.15;96126.25;12699173;23;20296;-82
2022/04/08 11:45:25;;;;;;;;;;;;;;;16.96;26.19;96116.25;12760130;23;20209;-86
2022/04/08 11:50:49;;;;;;;;;;;;;;;17.12;25.57;96088.34;12697673;23;19927;-86
2022/04/08 11:56:13;;;;;;;;;;;;;;;16.81;25.94;96101.22;12699249;23;19927;-85
2022/04/08 12:01:37;;;;;;;;;;;;;;;16.69;26.20;96084.09;12697125;23;19920;-77
2022/04/08 12:07:00;;;;;;;;;;;;;;;16.58;26.37;96063.47;12682783;23;20351;-76
2022/04/08 12:12:24;;;;;;;;;;;;;;;16.10;26.66;96052.03;12738982;23;19943;-76
2022/04/08 12:17:47;;;;;;;;;;;;;;;15.73;27.52;96036.56;12698940;23;19925;-77
2022/04/08 12:23:08;;;;;;;;;;;;;;;16.03;27.37;96016.75;12698130;23;19921;-78
2022/04/08 12:28:31;;;;;;;;;;;;;;;16.03;27.20;96016.75;12739576;23;19928;-78
2022/04/08 12:33:52;;;;;;;;;;;;;;;15.81;27.19;95994.50;12719675;23;20232;-80
2022/04/08 12:39:12;;;;;;;;;;;;;;;15.53;27.58;95994.63;12725798;23;19920;-78
2022/04/08 12:44:33;;;;;;;;;;;;;;;15.02;28.20;95996.34;12747826;23;19921;-77
2022/04/08 12:49:54;;;;;;;;;;;;;;;14.63;28.59;95977.19;12718801;23;19920;-81
2022/04/08 12:55:15;;;;;;;;;;;;;;;14.43;28.63;96014.59;12736077;23;20002;-76
2022/04/08 13:00:35;;;;;;;;;;;;;;;13.69;31.86;95994.41;12800994;23;19927;-80
2022/04/08 13:05:57;;;;;;;;;;;;;;;13.24;32.27;95995.25;12816420;23;19928;-80
2022/04/08 13:11:17;;;;;;;;;;;;;;;13.24;33.69;95984.78;12805448;23;19916;-87
2022/04/08 13:16:39;;;;;;;;;;;;;;;12.97;34.17;95996.53;12803195;23;19920;-87
2022/04/08 13:22:07;;;;;;;;;;;;;;;12.69;35.91;95987.97;12801601;23;19921;-78
2022/04/08 13:27:30;;;;;;;;;;;;;;;12.85;35.11;95988.50;12781758;23;19920;-78
2022/04/08 13:32:52;;;;;;;;;;;;;;;12.40;37.99;95997.56;12781314;23;20320;-77
2022/04/08 13:38:12;;;;;;;;;;;;;;;11.88;40.34;95991.63;12805752;23;19905;-84
2022/04/08 13:43:33;;;;;;;;;;;;;;;11.66;41.28;96006.22;12811632;23;19939;-82
2022/04/08 13:48:56;;;;;;;;;;;;;;;11.69;43.65;96004.94;12811936;23;19968;-82
2022/04/08 13:54:18;;;;;;;;;;;;;;;11.72;44.60;95986.88;12787253;23;20278;-84
2022/04/08 13:59:41;;;;;;;;;;;;;;;11.73;43.32;95991.09;12812818;23;19916;-87
2022/04/08 14:05:21;;;;;;;;;;;;;;;11.74;45.55;95995.34;12803890;23;19964;-86
2022/04/08 14:10:43;;;;;;;;;;;;;;;11.86;44.72;95988.75;12789855;23;19926;-81
2022/04/08 14:16:04;;;;;;;;;;;;;;;11.63;46.17;95985.16;12822708;23;20243;-87
2022/04/08 14:21:25;;;;;;;;;;;;;;;11.56;45.93;95980.72;12781877;23;20383;-77
2022/04/08 14:26:45;;;;;;;;;;;;;;;11.52;47.23;95975.00;12783688;23;20324;-77
2022/04/08 14:32:07;;;;;;;;;;;;;;;11.57;46.96;95964.66;12813554;23;20239;-81
2022/04/08 14:37:30;;;;;;;;;;;;;;;11.33;48.41;95954.06;12819315;23;19999;-82
2022/04/08 14:42:51;;;;;;;;;;;;;;;11.42;48.30;95952.28;12817230;23;19911;-86
2022/04/08 14:48:12;;;;;;;;;;;;;;;11.45;47.68;95948.19;12847347;23;19940;-78
2022/04/08 14:53:33;;;;;;;;;;;;;;;11.33;48.13;95937.31;12838679;23;19948;-81
2022/04/08 14:58:53;;;;;;;;;;;;;;;11.25;48.04;95919.53;12804448;23;19931;-79
2022/04/08 15:04:15;;;;;;;;;;;;;;;11.17;48.06;95914.38;12820467;23;19952;-80
2022/04/08 15:09:37;;;;;;;;;;;;;;;11.04;48.56;95902.06;12798019;23;19920;-78
2022/04/08 15:15:00;;;;;;;;;;;;;;;10.95;49.17;95894.03;12824072;23;19927;-86
2022/04/08 15:20:21;;;;;;;;;;;;;;;10.74;48.67;95893.31;12806314;23;20385;-78
2022/04/08 15:25:46;;;;;;;;;;;;;;;10.64;49.95;95887.34;12812368;23;19920;-79
2022/04/08 15:31:06;;;;;;;;;;;;;;;10.57;50.02;95869.66;12818835;23;19927;-79
2022/04/08 15:36:27;;;;;;;;;;;;;;;10.46;50.82;95859.47;12813449;23;19983;-76
2022/04/08 15:41:53;;;;;;;;;;;;;;;10.39;51.13;95855.00;12772270;23;19924;-78
2022/04/08 15:47:14;;;;;;;;;;;;;;;10.30;51.05;95861.63;12796724;23;19920;-78
2022/04/08 15:52:35;;;;;;;;;;;;;;;10.18;52.43;95855.56;12733555;23;19972;-76
2022/04/08 15:57:56;;;;;;;;;;;;;;;10.10;52.13;95858.03;12740577;23;19924;-76
2022/04/08 16:03:16;;;;;;;;;;;;;;;9.95;52.40;95840.78;12761465;23;19925;-75
2022/04/08 16:08:38;;;;;;;;;;;;;;;9.86;52.76;95824.38;12699180;23;20338;-76
2022/04/08 16:14:02;;;;;;;;;;;;;;;9.76;52.78;95827.47;12700710;23;19921;-77
2022/04/08 16:19:22;;;;;;;;;;;;;;;9.69;53.91;95837.66;12702197;23;20255;-75
2022/04/08 16:24:43;;;;;;;;;;;;;;;9.58;56.14;95823.97;12718609;23;19943;-76
2022/04/08 16:30:04;;;;;;;;;;;;;;;9.41;53.84;95817.72;12698212;23;19988;-78
2022/04/08 16:35:25;;;;;;;;;;;;;;;9.22;54.28;95812.03;12700643;23;19971;-75
2022/04/08 16:40:45;;;;;;;;;;;;;;;9.00;55.76;95806.97;12737891;23;19927;-76
2022/04/08 16:46:06;;;;;;;;;;;;;;;8.93;55.90;95799.00;12697401;23;19971;-76
2022/04/08 16:51:27;;;;;;;;;;;;;;;8.74;57.17;95792.63;12774680;23;20324;-79
2022/04/08 16:56:50;;;;;;;;;;;;;;;8.61;58.87;95796.25;12803974;23;19940;-79
2022/04/08 17:02:16;;;;;;;;;;;;;;;8.32;57.99;95792.19;12813789;23;19931;-80
2022/04/08 17:07:42;;;;;;;;;;;;;;;8.34;57.67;95799.91;12808704;23;19968;-79
2022/04/08 17:13:03;;;;;;;;;;;;;;;8.39;57.47;95803.59;12805803;23;19926;-79
2022/04/08 17:18:24;;;;;;;;;;;;;;;8.34;57.22;95786.00;12842211;23;19968;-79
2022/04/08 17:23:45;;;;;;;;;;;;;;;8.35;57.13;95806.19;12812375;23;19974;-79
2022/04/08 17:29:05;;;;;;;;;;;;;;;8.26;57.39;95799.53;12847438;23;19912;-77
2022/04/08 17:34:26;;;;;;;;;;;;;;;8.28;57.57;95792.00;12833890;23;19927;-78
2022/04/08 17:39:48;;;;;;;;;;;;;;;8.25;58.30;95787.69;12828128;23;19924;-81
2022/04/08 17:45:09;;;;;;;;;;;;;;;8.18;59.31;95783.19;12814715;23;19920;-81
2022/04/08 17:50:32;;;;;;;;;;;;;;;8.11;59.61;95773.16;12810613;23;19931;-81
2022/04/08 17:55:53;;;;;;;;;;;;;;;8.07;59.68;95784.09;12820700;23;19916;-81
2022/04/08 18:01:14;;;;;;;;;;;;;;;7.99;59.30;95776.09;12798225;23;19943;-81
2022/04/08 18:18:39;;;;;;;;;;;;;;;7.91;59.89;95794.44;12806629;23;19916;-77
2022/04/08 18:30:02;;;;;;;;;;;;;;;7.71;61.19;95806.03;12885459;23;19919;-81
2022/04/08 18:35:28;;;;;;;;;;;;;;;7.79;61.39;95805.00;12895262;23;19908;-81
2022/04/08 18:40:49;;;;;;;;;;;;;;;7.74;61.34;95807.59;12899295;23;19924;-81
2022/04/08 18:46:10;;;;;;;;;;;;;;;7.79;61.20;95805.00;12846991;23;19920;-78
2022/04/08 18:51:32;;;;;;;;;;;;;;;7.70;61.28;95810.16;12841483;23;19927;-78
2022/04/08 18:56:52;;;;;;;;;;;;;;;7.63;62.24;95822.34;12877147;23;19935;-80
2022/04/08 19:02:14;;;;;;;;;;;;;;;7.56;62.43;95823.38;12860584;23;19930;-82
2022/04/08 19:07:38;;;;;;;;;;;;;;;7.48;61.80;95831.31;12835292;23;19904;-80
2022/04/08 19:12:58;;;;;;;;;;;;;;;7.42;61.54;95814.34;12817021;23;19904;-82
2022/04/08 19:18:20;;;;;;;;;;;;;;;7.29;61.87;95809.56;12817778;23;19904;-81
2022/04/08 19:23:41;;;;;;;;;;;;;;;7.24;61.35;95832.91;12826932;23;19940;-80
2022/04/08 19:29:02;;;;;;;;;;;;;;;7.17;61.27;95820.78;12784480;23;20225;-80
2022/04/08 19:34:24;;;;;;;;;;;;;;;7.10;61.61;95805.91;12790871;23;20370;-80
2022/04/08 19:39:44;;;;;;;;;;;;;;;7.02;62.14;95797.16;12783729;23;19920;-77
2022/04/08 19:45:06;;;;;;;;;;;;;;;6.97;61.57;95800.38;12758747;23;19920;-78
2022/04/08 19:50:29;;;;;;;;;;;;;;;6.92;61.93;95801.50;12779800;23;19927;-77
2022/04/08 19:55:50;;;;;;;;;;;;;;;6.81;62.30;95794.72;12801041;23;19920;-77
2022/04/08 20:01:10;;;;;;;;;;;;;;;6.75;62.81;95786.09;12804695;23;19920;-77
2022/04/08 20:06:35;;;;;;;;;;;;;;;6.78;62.33;95782.09;12758761;23;19921;-78
2022/04/08 20:11:55;;;;;;;;;;;;;;;6.86;62.36;95776.97;12807802;23;19920;-82
2022/04/08 20:17:17;;;;;;;;;;;;;;;6.91;62.57;95786.19;12765829;23;19924;-81
2022/04/08 20:22:37;;;;;;;;;;;;;;;6.93;62.37;95778.69;12803637;23;19987;-79
2022/04/08 20:27:58;;;;;;;;;;;;;;;6.96;62.71;95774.69;12792385;23;19955;-78
2022/04/08 20:33:19;;;;;;;;;;;;;;;6.99;62.80;95779.00;12736768;23;20213;-78
2022/04/08 20:38:42;;;;;;;;;;;;;;;6.97;62.56;95778.19;12758120;23;19920;-80
2022/04/08 20:44:03;;;;;;;;;;;;;;;6.92;62.54;95788.34;12805829;23;19924;-80
2022/04/08 20:49:28;;;;;;;;;;;;;;;6.94;62.75;95776.63;12803386;23;20429;-77
2022/04/08 20:54:49;;;;;;;;;;;;;;;6.92;62.55;95780.03;12797631;23;19916;-78
2022/04/08 21:00:12;;;;;;;;;;;;;;;6.91;62.24;95764.72;12815834;23;19905;-79
2022/04/08 21:05:33;;;;;;;;;;;;;;;6.88;62.54;95758.34;12793891;23;19931;-83
2022/04/08 21:16:56;;;;;;;;;;;;;;;6.90;62.68;95779.94;12827913;23;19920;-79
2022/04/08 21:46:25;;;;;;;;;;;;;;;6.59;63.89;95736.81;12878338;23;19930;-84
2022/04/08 21:51:47;;;;;;;;;;;;;;;6.58;63.68;95743.69;12778144;23;19927;-77
2022/04/08 22:09:13;;;;;;;;;;;;;;;6.42;65.01;95711.66;12820758;23;19910;-82
2022/04/08 22:20:41;;;;;;;;;;;;;;;6.46;64.30;95714.63;12891815;23;19919;-84
2022/04/08 22:38:11;;;;;;;;;;;;;;;6.14;64.93;95644.44;12800003;23;19926;31
2022/04/08 22:49:35;;;;;;;;;;;;;;;6.02;65.26;95616.84;12850079;22;19953;-83
2022/04/08 22:54:56;;;;;;;;;;;;;;;5.84;65.25;95597.22;12881604;23;19904;-84
2022/04/08 23:00:19;;;;;;;;;;;;;;;5.84;66.23;95583.38;12901944;23;19911;-79
2022/04/08 23:05:41;;;;;;;;;;;;;;;5.89;66.45;95576.72;12836792;23;19904;-84
2022/04/08 23:11:03;;;;;;;;;;;;;;;5.89;66.52;95576.72;12839646;23;19976;-84
2022/04/08 23:16:25;;;;;;;;;;;;;;;5.92;65.53;95572.75;12839663;23;19931;-84
2022/04/08 23:21:47;;;;;;;;;;;;;;;5.87;65.73;95568.31;12819350;23;19951;-80
2022/04/08 23:33:14;;;;;;;;;;;;;;;5.93;65.96;95587.31;12853366;23;19920;-81
2022/04/08 23:38:36;;;;;;;;;;;;;;;5.88;66.19;95578.03;12839226;23;19924;-82
2022/04/08 23:43:57;;;;;;;;;;;;;;;5.77;67.35;95556.72;12818396;23;19973;-84
2022/04/08 23:49:21;;;;;;;;;;;;;;;5.78;66.77;95538.06;12839865;23;19904;-83
2022/04/08 23:54:43;;;;;;;;;;;;;;;5.62;67.06;95546.28;12818253;23;19916;-84
